Terminal Aerodrome Forecast
Issued by NWS

Home | Current Version | Previous Version | Text Only | Print | Product List | Glossary On
Versions: 1 2 3 4 5 6 7 8 9 10 11 12 13 14
000
FTUS45 KRIW 042327
TAFWRL
TAF
KWRL 042327Z 0500/0524 02008KT P6SM VCTS SCT100CB
     FM050600 VRB06KT P6SM FEW120
     FM051800 20011KT P6SM FEW100
     FM052100 20017G28KT P6SM FEW080=

USA.gov is the U.S. government's official web portal to all federal, state and local government web resources and services.